createdAt,value
2022-08-14T00:01:24.159Z,2.30
2022-08-14T00:03:29.257Z,2.13
2022-08-14T00:05:31.447Z,2.70
2022-08-14T00:07:35.572Z,2.47
2022-08-14T00:10:02.065Z,2.45
2022-08-14T00:12:06.979Z,2.40
2022-08-14T00:14:27.127Z,1.92
2022-08-14T00:16:41.041Z,2.08
2022-08-14T00:19:06.914Z,2.00
2022-08-14T00:21:10.966Z,2.30
2022-08-14T00:23:16.749Z,2.17
2022-08-14T00:25:19.383Z,2.35
2022-08-14T00:27:22.601Z,2.47
2022-08-14T00:29:25.498Z,2.15
2022-08-14T00:31:35.104Z,2.25
2022-08-14T00:33:51.531Z,2.00
2022-08-14T00:36:39.280Z,2.15
2022-08-14T00:38:17.729Z,2.55
2022-08-14T00:40:33.605Z,2.33
2022-08-14T00:42:55.034Z,2.10
2022-08-14T00:44:58.195Z,2.30
2022-08-14T00:47:10.739Z,2.13
2022-08-14T00:49:14.713Z,2.20
2022-08-14T00:51:16.602Z,2.30
2022-08-14T00:53:18.383Z,1.80
2022-08-14T00:55:23.334Z,2.17
2022-08-14T00:57:32.131Z,2.20
2022-08-14T00:59:35.726Z,2.35
2022-08-14T01:01:39.226Z,1.88
2022-08-14T01:03:43.198Z,2.25
2022-08-14T01:05:50.757Z,2.50
2022-08-14T01:07:57.864Z,2.10
2022-08-14T01:10:05.275Z,2.13
2022-08-14T01:12:07.843Z,2.75
2022-08-14T01:14:25.846Z,2.45
2022-08-14T01:16:31.641Z,2.28
2022-08-14T01:18:57.883Z,2.38
2022-08-14T01:21:23.995Z,2.03
2022-08-14T01:23:25.698Z,2.20
2022-08-14T01:25:44.263Z,2.05
2022-08-14T01:27:53.951Z,2.88
2022-08-14T01:30:04.046Z,2.25
2022-08-14T01:32:10.492Z,2.30
2022-08-14T01:35:17.567Z,2.65
2022-08-14T01:36:39.074Z,1.83
2022-08-14T01:38:44.191Z,2.30
2022-08-14T01:40:50.870Z,2.03
2022-08-14T01:42:56.248Z,1.92
2022-08-14T01:44:59.721Z,2.40
2022-08-14T01:47:21.935Z,2.25
2022-08-14T01:49:24.842Z,2.17
2022-08-14T01:51:37.489Z,1.92
2022-08-14T01:53:44.651Z,2.00
2022-08-14T01:55:51.611Z,1.90
2022-08-14T01:58:18.089Z,2.30
2022-08-14T02:00:18.815Z,1.75
2022-08-14T02:02:20.819Z,1.92
2022-08-14T02:04:54.668Z,2.33
2022-08-14T02:06:47.446Z,1.90
2022-08-14T02:08:56.519Z,2.20
2022-08-14T02:11:22.379Z,1.90
2022-08-14T02:13:24.132Z,2.70
2022-08-14T02:15:26.422Z,1.98
2022-08-14T02:17:29.231Z,2.05
2022-08-14T02:19:35.748Z,2.17
2022-08-14T02:21:43.392Z,1.98
2022-08-14T02:23:53.345Z,1.88
2022-08-14T02:25:55.480Z,2.22
2022-08-14T02:28:25.238Z,1.67
2022-08-14T02:30:19.102Z,1.95
2022-08-14T02:32:35.719Z,2.47
2022-08-14T02:34:38.727Z,2.20
2022-08-14T02:37:04.221Z,2.78
2022-08-14T02:39:09.451Z,1.80
2022-08-14T02:41:13.326Z,2.22
2022-08-14T02:43:16.108Z,1.95
2022-08-14T02:45:44.200Z,1.83
2022-08-14T02:47:47.557Z,2.15
2022-08-14T02:49:54.609Z,1.90
2022-08-14T02:51:58.244Z,1.80
2022-08-14T02:54:00.299Z,1.90
2022-08-14T02:56:29.561Z,2.15
2022-08-14T02:58:30.342Z,2.63
2022-08-14T03:00:40.030Z,2.45
2022-08-14T03:02:56.317Z,2.03
2022-08-14T03:05:01.346Z,2.38
2022-08-14T03:07:07.336Z,2.22
2022-08-14T03:09:11.388Z,2.20
2022-08-14T03:11:13.587Z,2.00
2022-08-14T03:13:19.559Z,1.50
2022-08-14T03:15:22.766Z,2.35
2022-08-14T03:17:24.488Z,2.03
2022-08-14T03:19:26.790Z,2.03
2022-08-14T03:21:32.811Z,2.45
2022-08-14T03:23:38.760Z,2.08
2022-08-14T03:25:41.102Z,2.67
2022-08-14T03:27:48.368Z,2.05
2022-08-14T03:29:59.808Z,2.25
2022-08-14T03:32:07.282Z,2.33
2022-08-14T03:34:24.231Z,2.17
2022-08-14T03:37:37.814Z,1.90
2022-08-14T03:39:13.037Z,1.75
2022-08-14T03:41:17.801Z,2.00
2022-08-14T03:43:19.515Z,2.38
2022-08-14T03:45:33.696Z,2.25
2022-08-14T03:47:55.916Z,2.08
2022-08-14T03:50:00.278Z,2.05
2022-08-14T03:52:07.855Z,2.30
2022-08-14T03:54:27.178Z,2.13
2022-08-14T03:56:30.135Z,2.35
2022-08-14T03:58:36.416Z,2.35
2022-08-14T04:00:44.759Z,2.13
2022-08-14T04:02:53.333Z,1.83
2022-08-14T04:04:55.242Z,2.78
2022-08-14T04:07:11.054Z,1.73
2022-08-14T04:09:12.751Z,2.17
2022-08-14T04:11:15.430Z,2.42
2022-08-14T04:13:18.324Z,2.85
2022-08-14T04:15:23.550Z,2.75
2022-08-14T04:17:26.423Z,2.42
2022-08-14T04:19:33.148Z,2.40
2022-08-14T04:21:39.953Z,2.63
2022-08-14T04:24:01.861Z,2.72
2022-08-14T04:26:08.199Z,2.70
2022-08-14T04:29:06.787Z,3.03
2022-08-14T04:30:39.435Z,2.80
2022-08-14T04:33:01.025Z,2.53
2022-08-14T04:35:07.689Z,2.72
2022-08-14T04:37:30.970Z,2.78
2022-08-14T04:39:56.935Z,2.25
2022-08-14T04:42:18.119Z,2.88
2022-08-14T04:44:26.659Z,3.58
2022-08-14T04:46:54.813Z,3.05
2022-08-14T04:49:00.122Z,3.53
2022-08-14T04:51:05.112Z,3.10
2022-08-14T04:53:06.871Z,3.70
2022-08-14T04:55:12.692Z,2.88
2022-08-14T04:57:14.988Z,3.42
2022-08-14T04:59:16.703Z,2.63
2022-08-14T05:01:19.713Z,3.00
2022-08-14T05:03:23.090Z,3.33
2022-08-14T05:05:27.076Z,3.13
2022-08-14T05:07:54.066Z,2.75
2022-08-14T05:09:55.667Z,3.15
2022-08-14T05:13:11.148Z,4.13
2022-08-14T05:14:46.844Z,3.22
2022-08-14T05:16:46.705Z,3.10
2022-08-14T05:19:24.745Z,3.75
2022-08-14T05:21:57.613Z,3.17
2022-08-14T05:23:35.715Z,3.00
2022-08-14T05:25:39.027Z,3.25
2022-08-14T05:27:40.790Z,3.03
2022-08-14T05:29:44.874Z,3.65
2022-08-14T05:31:46.801Z,3.35
2022-08-14T05:33:56.632Z,3.30
2022-08-14T05:36:03.743Z,4.05
2022-08-14T05:38:10.821Z,3.58
2022-08-14T05:40:24.090Z,3.70
2022-08-14T05:42:31.846Z,3.72
2022-08-14T05:44:36.088Z,4.40
2022-08-14T05:46:39.111Z,4.13
2022-08-14T05:48:42.748Z,4.57
2022-08-14T05:50:45.461Z,5.30
2022-08-14T05:52:51.625Z,4.63
2022-08-14T05:54:53.556Z,4.88
2022-08-14T05:56:55.769Z,4.75
2022-08-14T05:58:57.538Z,4.70
2022-08-14T06:01:02.409Z,4.28
2022-08-14T06:03:07.245Z,4.82
2022-08-14T06:05:10.492Z,5.13
2022-08-14T06:07:14.876Z,4.85
2022-08-14T06:09:16.844Z,4.53
2022-08-14T06:11:20.384Z,5.18
2022-08-14T06:13:44.897Z,5.22
2022-08-14T06:15:48.367Z,5.03
2022-08-14T06:17:58.565Z,4.63
2022-08-14T06:20:01.090Z,4.20
2022-08-14T06:22:02.957Z,5.38
2022-08-14T06:24:05.041Z,4.82
2022-08-14T06:26:12.141Z,4.68
2022-08-14T06:28:27.131Z,4.72
2022-08-14T06:30:45.711Z,5.03
2022-08-14T06:32:53.051Z,4.78
2022-08-14T06:35:09.653Z,4.55
2022-08-14T06:37:18.758Z,4.90
2022-08-14T06:39:36.781Z,4.95
2022-08-14T06:41:58.217Z,4.00
2022-08-14T06:44:00.984Z,4.70
2022-08-14T06:46:04.381Z,6.55
2022-08-14T06:48:17.259Z,5.28
2022-08-14T06:50:21.699Z,5.10
2022-08-14T06:52:30.221Z,5.45
2022-08-14T06:54:32.078Z,5.28
2022-08-14T06:56:33.848Z,5.78
2022-08-14T06:58:36.928Z,5.57
2022-08-14T07:00:38.913Z,7.00
2022-08-14T07:03:02.135Z,6.50
2022-08-14T07:05:23.714Z,6.03
2022-08-14T07:07:25.547Z,7.15
2022-08-14T07:09:43.573Z,6.80
2022-08-14T07:11:45.967Z,6.40
2022-08-14T07:13:49.058Z,6.65
2022-08-14T07:15:55.857Z,6.75
2022-08-14T07:17:57.627Z,8.48
2022-08-14T07:20:02.144Z,7.10
2022-08-14T07:22:05.619Z,6.50
2022-08-14T07:24:21.859Z,6.13
2022-08-14T07:26:24.045Z,6.07
2022-08-14T07:28:29.921Z,5.95
2022-08-14T07:30:34.344Z,5.38
2022-08-14T07:32:36.922Z,5.93
2022-08-14T07:34:41.148Z,5.50
2022-08-14T07:36:58.006Z,5.95
2022-08-14T07:39:02.955Z,4.90
2022-08-14T07:41:11.699Z,5.10
2022-08-14T07:43:16.606Z,5.47
2022-08-14T07:45:18.501Z,5.18
2022-08-14T07:47:20.693Z,5.65
2022-08-14T07:49:24.494Z,5.97
2022-08-14T07:51:34.425Z,5.43
2022-08-14T07:53:40.812Z,5.95
2022-08-14T07:55:43.294Z,5.28
2022-08-14T07:57:47.615Z,5.35
2022-08-14T07:59:53.984Z,4.68
2022-08-14T08:01:57.351Z,5.95
2022-08-14T08:04:03.567Z,5.97
2022-08-14T08:06:10.373Z,5.38
2022-08-14T08:08:26.541Z,5.88
2022-08-14T08:10:46.182Z,5.47
2022-08-14T08:12:55.319Z,5.22
2022-08-14T08:15:03.040Z,4.35
2022-08-14T08:17:09.400Z,4.60
2022-08-14T08:19:14.187Z,4.95
2022-08-14T08:21:17.932Z,5.10
2022-08-14T08:23:21.474Z,4.85
2022-08-14T08:25:39.609Z,4.80
2022-08-14T08:27:44.677Z,4.43
2022-08-14T08:29:50.786Z,4.68
2022-08-14T08:31:53.106Z,4.22
2022-08-14T08:33:54.834Z,4.60
2022-08-14T08:36:01.802Z,5.55
2022-08-14T08:39:14.191Z,4.22
2022-08-14T08:40:31.200Z,5.00
2022-08-14T08:42:41.495Z,4.93
2022-08-14T08:44:56.775Z,4.20
2022-08-14T08:47:03.514Z,3.95
2022-08-14T08:49:06.147Z,4.88
2022-08-14T08:51:09.730Z,4.40
2022-08-14T08:53:13.505Z,3.33
2022-08-14T08:55:16.225Z,2.97
2022-08-14T08:57:21.648Z,2.78
2022-08-14T08:59:31.154Z,2.92
2022-08-14T09:01:33.282Z,3.22
2022-08-14T09:03:43.941Z,3.13
2022-08-14T09:05:54.081Z,2.40
2022-08-14T09:08:30.376Z,3.78
2022-08-14T09:10:31.444Z,3.58
2022-08-14T09:12:35.229Z,2.53
2022-08-14T09:14:37.116Z,1.90
2022-08-14T09:16:45.174Z,1.73
2022-08-14T09:18:50.208Z,2.17
2022-08-14T09:20:58.807Z,2.40
2022-08-14T09:23:00.994Z,3.17
2022-08-14T09:25:03.455Z,2.80
2022-08-14T09:27:08.787Z,3.50
2022-08-14T09:29:23.872Z,1.80
2022-08-14T09:31:26.717Z,1.92
2022-08-14T09:34:19.680Z,2.38
2022-08-14T09:37:14.439Z,2.17
2022-08-14T09:39:32.900Z,1.70
2022-08-14T09:42:20.541Z,1.83
2022-08-14T09:44:34.784Z,1.83
2022-08-14T09:46:36.498Z,1.50
2022-08-14T09:48:38.265Z,1.60
2022-08-14T09:50:52.213Z,1.48
2022-08-14T09:53:00.066Z,1.52
2022-08-14T09:55:04.826Z,1.50
2022-08-14T09:57:10.233Z,1.77
2022-08-14T09:59:15.198Z,1.35
2022-08-14T10:01:19.019Z,1.30
2022-08-14T10:03:34.524Z,2.33
2022-08-14T10:05:39.275Z,1.90
2022-08-14T10:07:59.105Z,1.55
2022-08-14T10:10:03.680Z,1.50
2022-08-14T10:12:38.330Z,1.63
2022-08-14T10:14:41.169Z,1.60
2022-08-14T10:16:48.908Z,1.35
2022-08-14T10:19:07.336Z,2.03
2022-08-14T10:21:10.598Z,1.63
2022-08-14T10:23:19.167Z,1.55
2022-08-14T10:25:22.626Z,2.08
2022-08-14T10:27:26.651Z,1.60
2022-08-14T10:29:37.844Z,1.60
2022-08-14T10:31:44.656Z,1.40
2022-08-14T10:34:00.395Z,1.50
2022-08-14T10:36:02.811Z,1.38
2022-08-14T10:38:07.286Z,1.80
2022-08-14T10:40:16.955Z,2.33
2022-08-14T10:42:40.294Z,1.58
2022-08-14T10:44:48.864Z,1.40
2022-08-14T10:47:39.363Z,2.05
2022-08-14T10:49:26.698Z,1.55
2022-08-14T10:51:36.339Z,1.73
2022-08-14T10:53:41.720Z,1.30
2022-08-14T10:55:45.559Z,1.48
2022-08-14T10:57:49.838Z,1.80
2022-08-14T10:59:59.610Z,1.70
2022-08-14T11:02:01.412Z,1.70
2022-08-14T11:04:03.459Z,2.17
2022-08-14T11:06:17.318Z,1.88
2022-08-14T11:08:31.345Z,1.73
2022-08-14T11:10:43.096Z,1.83
2022-08-14T11:12:48.062Z,1.33
2022-08-14T11:14:58.518Z,1.88
2022-08-14T11:17:02.613Z,1.88
2022-08-14T11:19:06.242Z,1.55
2022-08-14T11:21:15.463Z,2.08
2022-08-14T11:23:18.580Z,1.95
2022-08-14T11:25:25.598Z,2.17
2022-08-14T11:27:46.503Z,1.60
2022-08-14T11:29:52.539Z,1.60
2022-08-14T11:32:02.479Z,1.70
2022-08-14T11:34:04.298Z,2.10
2022-08-14T11:36:10.263Z,1.98
2022-08-14T11:38:21.586Z,1.55
2022-08-14T11:40:29.266Z,3.55
2022-08-14T11:42:58.143Z,1.70
2022-08-14T11:45:00.274Z,2.22
2022-08-14T11:47:06.036Z,1.65
2022-08-14T11:49:09.481Z,1.95
2022-08-14T11:51:23.956Z,1.65
2022-08-14T11:53:33.303Z,1.90
2022-08-14T11:55:39.373Z,1.83
2022-08-14T11:57:42.761Z,2.30
2022-08-14T12:00:04.792Z,1.90
2022-08-14T12:03:01.507Z,1.63
2022-08-14T12:04:49.306Z,1.63
2022-08-14T12:06:55.824Z,3.53
2022-08-14T12:08:59.757Z,1.50
2022-08-14T12:11:02.834Z,2.42
2022-08-14T12:13:11.814Z,1.90
2022-08-14T12:15:13.500Z,1.77
2022-08-14T12:17:15.202Z,1.98
2022-08-14T12:19:25.658Z,1.75
2022-08-14T12:21:32.132Z,1.70
2022-08-14T12:23:34.072Z,1.98
2022-08-14T12:25:35.836Z,1.30
2022-08-14T12:27:52.925Z,1.48
2022-08-14T12:29:57.203Z,1.73
2022-08-14T12:32:06.697Z,1.60
2022-08-14T12:34:13.654Z,1.58
2022-08-14T12:36:47.694Z,1.33
2022-08-14T12:38:54.184Z,1.58
2022-08-14T12:40:56.222Z,1.70
2022-08-14T12:43:04.048Z,1.55
2022-08-14T12:45:07.349Z,1.63
2022-08-14T12:47:13.266Z,1.33
2022-08-14T12:49:18.924Z,1.75
2022-08-14T12:51:25.155Z,1.70
2022-08-14T12:53:39.936Z,1.60
2022-08-14T12:56:18.561Z,1.58
2022-08-14T12:58:34.999Z,1.50
2022-08-14T13:00:30.421Z,1.40
2022-08-14T13:02:37.755Z,1.20
2022-08-14T13:04:39.458Z,2.03
2022-08-14T13:06:50.862Z,1.60
2022-08-14T13:09:00.032Z,1.55
2022-08-14T13:11:06.445Z,1.35
2022-08-14T13:13:15.692Z,1.70
2022-08-14T13:15:19.527Z,1.45
2022-08-14T13:17:22.075Z,1.40
2022-08-14T13:19:26.714Z,1.40
2022-08-14T13:21:58.584Z,1.30
2022-08-14T13:23:54.840Z,1.50
2022-08-14T13:25:58.254Z,1.50
2022-08-14T13:28:00.153Z,1.58
2022-08-14T13:30:03.930Z,1.55
2022-08-14T13:32:13.202Z,1.20
2022-08-14T13:34:15.187Z,1.38
2022-08-14T13:36:24.120Z,1.40
2022-08-14T13:38:42.657Z,1.38
2022-08-14T13:40:44.259Z,1.45
2022-08-14T13:42:52.847Z,1.42
2022-08-14T13:44:56.573Z,1.23
2022-08-14T13:46:59.952Z,1.75
2022-08-14T13:49:10.668Z,1.10
2022-08-14T13:51:14.326Z,1.48
2022-08-14T13:53:16.896Z,1.52
2022-08-14T13:55:20.523Z,1.65
2022-08-14T13:57:30.211Z,1.25
2022-08-14T13:59:37.821Z,1.63
2022-08-14T14:01:44.763Z,1.50
2022-08-14T14:03:50.247Z,1.60
2022-08-14T14:05:55.140Z,1.52
2022-08-14T14:07:57.779Z,1.60
2022-08-14T14:10:06.179Z,1.20
2022-08-14T14:12:36.481Z,1.23
2022-08-14T14:14:50.924Z,1.10
2022-08-14T14:16:52.433Z,1.30
2022-08-14T14:18:57.509Z,1.27
2022-08-14T14:20:59.257Z,1.20
2022-08-14T14:23:03.445Z,1.23
2022-08-14T14:25:19.254Z,0.93
2022-08-14T14:27:42.429Z,1.00
2022-08-14T14:29:50.520Z,1.52
2022-08-14T14:31:52.830Z,1.38
2022-08-14T14:33:59.608Z,1.08
2022-08-14T14:36:05.003Z,1.02
2022-08-14T14:38:07.208Z,1.52
2022-08-14T14:40:52.087Z,1.30
2022-08-14T14:42:35.431Z,1.20
2022-08-14T14:44:40.709Z,1.08
2022-08-14T14:46:43.477Z,2.08
2022-08-14T14:48:53.878Z,1.20
2022-08-14T14:51:01.625Z,1.17
2022-08-14T14:53:12.864Z,1.08
2022-08-14T14:55:17.029Z,1.20
2022-08-14T14:57:19.212Z,0.93
2022-08-14T14:59:21.149Z,1.08
2022-08-14T15:01:24.072Z,1.02
2022-08-14T15:03:26.304Z,2.50
2022-08-14T15:05:30.581Z,1.05
2022-08-14T15:07:36.281Z,1.20
2022-08-14T15:09:37.958Z,1.20
2022-08-14T15:11:40.591Z,1.50
2022-08-14T15:13:43.327Z,1.00
2022-08-14T15:15:55.774Z,1.65
2022-08-14T15:17:58.756Z,1.13
2022-08-14T15:20:01.292Z,1.33
2022-08-14T15:22:03.975Z,1.00
2022-08-14T15:24:05.942Z,1.20
2022-08-14T15:26:13.359Z,2.22
2022-08-14T15:28:26.911Z,1.13
2022-08-14T15:30:32.294Z,1.10
2022-08-14T15:32:34.813Z,1.20
2022-08-14T15:34:50.934Z,1.30
2022-08-14T15:36:53.836Z,1.55
2022-08-14T15:38:59.479Z,1.27
2022-08-14T15:41:08.500Z,1.27
2022-08-14T15:43:13.014Z,1.30
2022-08-14T15:45:17.196Z,1.42
2022-08-14T15:47:23.296Z,1.55
2022-08-14T15:49:34.807Z,1.42
2022-08-14T15:51:42.260Z,1.48
2022-08-14T15:53:46.591Z,1.42
2022-08-14T15:55:49.320Z,1.20
2022-08-14T15:58:03.556Z,1.20
2022-08-14T16:00:40.337Z,1.50
2022-08-14T16:02:45.369Z,1.10
2022-08-14T16:06:45.907Z,1.45
2022-08-14T16:09:03.472Z,1.38
2022-08-14T16:11:14.387Z,1.35
2022-08-14T16:13:17.207Z,1.25
2022-08-14T16:15:39.259Z,0.90
2022-08-14T16:17:54.847Z,1.40
2022-08-14T16:19:57.537Z,1.40
2022-08-14T16:22:57.498Z,1.20
2022-08-14T16:24:28.721Z,1.88
2022-08-14T16:26:33.359Z,1.60
2022-08-14T16:28:36.251Z,1.67
2022-08-14T16:30:38.163Z,1.40
2022-08-14T16:32:55.372Z,1.80
2022-08-14T16:34:57.911Z,1.30
2022-08-14T16:37:01.480Z,1.20
2022-08-14T16:39:06.272Z,1.27
2022-08-14T16:41:17.106Z,1.40
2022-08-14T16:43:25.852Z,1.77
2022-08-14T16:45:29.156Z,1.00
2022-08-14T16:47:32.199Z,1.33
2022-08-14T16:50:04.256Z,1.40
2022-08-14T16:51:58.366Z,1.60
2022-08-14T16:54:01.509Z,1.55
2022-08-14T16:56:17.147Z,1.40
2022-08-14T16:58:29.610Z,1.10
2022-08-14T17:00:32.952Z,1.40
2022-08-14T17:02:45.023Z,1.30
2022-08-14T17:04:49.363Z,1.33
2022-08-14T17:06:55.894Z,1.75
2022-08-14T17:08:57.546Z,1.92
2022-08-14T17:11:04.559Z,1.20
2022-08-14T17:13:18.396Z,1.25
2022-08-14T17:15:19.955Z,1.15
2022-08-14T17:17:26.001Z,1.60
2022-08-14T17:19:40.121Z,1.10
2022-08-14T17:21:47.219Z,1.40
2022-08-14T17:24:00.620Z,1.30
2022-08-14T17:26:02.124Z,1.17
2022-08-14T17:28:50.542Z,1.05
2022-08-14T17:31:07.336Z,1.05
2022-08-14T17:33:32.745Z,1.00
2022-08-14T17:35:58.715Z,1.20
2022-08-14T17:38:10.090Z,1.27
2022-08-14T17:40:33.110Z,1.02
2022-08-14T17:42:51.867Z,1.20
2022-08-14T17:45:01.022Z,1.00
2022-08-14T17:47:05.120Z,1.00
2022-08-14T17:49:15.193Z,1.17
2022-08-14T17:51:24.022Z,1.17
2022-08-14T17:53:33.235Z,1.05
2022-08-14T17:56:01.916Z,1.30
2022-08-14T17:57:57.700Z,0.90
2022-08-14T18:00:01.842Z,1.17
2022-08-14T18:02:04.337Z,1.00
2022-08-14T18:04:24.980Z,1.10
2022-08-14T18:06:39.791Z,1.10
2022-08-14T18:08:49.841Z,1.08
2022-08-14T18:11:00.219Z,1.38
2022-08-14T18:13:02.432Z,1.00
2022-08-14T18:15:16.130Z,2.72
2022-08-14T18:17:23.258Z,1.52
2022-08-14T18:19:26.686Z,1.20
2022-08-14T18:21:56.578Z,1.27
2022-08-14T18:23:51.593Z,1.50
2022-08-14T18:25:54.523Z,1.15
2022-08-14T18:27:57.296Z,1.60
2022-08-14T18:29:59.934Z,1.02
2022-08-14T18:32:01.526Z,1.10
2022-08-14T18:34:31.134Z,1.23
2022-08-14T18:36:55.433Z,1.10
2022-08-14T18:39:26.608Z,1.20
2022-08-14T18:41:37.479Z,1.17
2022-08-14T18:43:44.315Z,1.05
2022-08-14T18:46:00.786Z,1.35
2022-08-14T18:48:17.875Z,1.30
2022-08-14T18:50:27.935Z,1.17
2022-08-14T18:52:41.766Z,0.95
2022-08-14T18:54:48.720Z,1.30
2022-08-14T18:57:03.422Z,1.23
2022-08-14T18:59:35.366Z,1.58
2022-08-14T19:01:37.489Z,1.13
2022-08-14T19:03:46.249Z,1.27
2022-08-14T19:05:48.409Z,1.10
2022-08-14T19:08:29.481Z,1.50
2022-08-14T19:10:37.345Z,1.40
2022-08-14T19:12:58.487Z,0.95
2022-08-14T19:15:08.554Z,1.02
2022-08-14T19:18:15.072Z,1.50
2022-08-14T19:20:09.562Z,0.98
2022-08-14T19:22:29.378Z,1.10
2022-08-14T19:24:34.213Z,1.27
2022-08-14T19:26:52.208Z,1.10
2022-08-14T19:28:57.492Z,1.25
2022-08-14T19:31:37.030Z,1.20
2022-08-14T19:33:41.851Z,1.55
2022-08-14T19:35:55.165Z,1.23
2022-08-14T19:38:01.694Z,1.13
2022-08-14T19:40:15.441Z,1.30
2022-08-14T19:42:28.530Z,1.40
2022-08-14T19:44:32.316Z,1.08
2022-08-14T19:46:39.073Z,1.60
2022-08-14T19:48:56.954Z,1.15
2022-08-14T19:51:02.838Z,1.15
2022-08-14T19:53:11.182Z,1.52
2022-08-14T19:55:18.115Z,1.10
2022-08-14T19:57:32.464Z,1.20
2022-08-14T19:59:36.835Z,1.15
2022-08-14T20:01:57.119Z,1.02
2022-08-14T20:04:02.597Z,1.25
2022-08-14T20:06:05.743Z,1.30
2022-08-14T20:08:40.335Z,1.30
2022-08-14T20:11:07.227Z,1.10
2022-08-14T20:13:00.911Z,1.20
2022-08-14T20:15:08.540Z,1.02
2022-08-14T20:17:15.398Z,1.05
2022-08-14T20:19:37.603Z,0.95
2022-08-14T20:21:58.565Z,1.10
2022-08-14T20:24:30.483Z,1.25
2022-08-14T20:26:36.815Z,1.20
2022-08-14T20:28:40.063Z,1.15
2022-08-14T20:31:12.563Z,1.20
2022-08-14T20:33:16.865Z,1.17
2022-08-14T20:35:24.433Z,1.40
2022-08-14T20:37:37.180Z,1.10
2022-08-14T20:39:45.023Z,1.08
2022-08-14T20:42:15.018Z,2.28
2022-08-14T20:44:40.741Z,1.55
2022-08-14T20:46:42.981Z,1.60
2022-08-14T20:49:05.874Z,1.30
2022-08-14T20:51:26.274Z,1.50
2022-08-14T20:53:38.548Z,1.58
2022-08-14T20:55:45.378Z,1.80
2022-08-14T20:57:47.755Z,1.75
2022-08-14T20:59:57.425Z,1.48
2022-08-14T21:02:28.699Z,1.88
2022-08-14T21:04:34.008Z,1.77
2022-08-14T21:07:23.059Z,2.10
2022-08-14T21:09:06.579Z,2.53
2022-08-14T21:11:14.566Z,1.80
2022-08-14T21:14:09.141Z,1.60
2022-08-14T21:15:43.353Z,1.83
2022-08-14T21:17:59.962Z,1.70
2022-08-14T21:20:26.422Z,2.35
2022-08-14T21:22:23.695Z,2.30
2022-08-14T21:24:46.897Z,1.83
2022-08-14T21:27:00.166Z,2.10
2022-08-14T21:29:03.797Z,2.42
2022-08-14T21:31:07.555Z,2.38
2022-08-14T21:33:10.339Z,2.10
2022-08-14T21:35:13.972Z,2.42
2022-08-14T21:37:15.792Z,1.88
2022-08-14T21:39:18.884Z,2.97
2022-08-14T21:41:43.498Z,2.00
2022-08-14T21:43:51.670Z,3.05
2022-08-14T21:45:58.818Z,2.45
2022-08-14T21:48:00.474Z,2.42
2022-08-14T21:50:39.558Z,1.90
2022-08-14T21:52:50.400Z,1.92
2022-08-14T21:54:53.831Z,1.85
2022-08-14T21:56:56.793Z,1.67
2022-08-14T21:58:59.832Z,1.48
2022-08-14T22:01:06.300Z,3.30
2022-08-14T22:03:16.980Z,1.73
2022-08-14T22:05:19.839Z,2.20
2022-08-14T22:07:21.334Z,1.90
2022-08-14T22:09:36.271Z,3.00
2022-08-14T22:11:39.270Z,2.13
2022-08-14T22:13:46.416Z,2.42
2022-08-14T22:15:50.132Z,2.80
2022-08-14T22:17:54.610Z,2.00
2022-08-14T22:19:56.965Z,2.83
2022-08-14T22:21:58.590Z,2.42
2022-08-14T22:24:01.619Z,2.17
2022-08-14T22:26:12.337Z,2.38
2022-08-14T22:28:33.235Z,2.80
2022-08-14T22:30:36.841Z,2.08
2022-08-14T22:32:57.727Z,2.53
2022-08-14T22:35:00.078Z,2.28
2022-08-14T22:37:03.909Z,2.63
2022-08-14T22:39:05.802Z,1.75
2022-08-14T22:41:27.562Z,2.97
2022-08-14T22:43:32.766Z,2.78
2022-08-14T22:45:37.736Z,2.05
2022-08-14T22:47:40.814Z,2.90
2022-08-14T22:50:31.085Z,2.70
2022-08-14T22:52:31.871Z,2.35
2022-08-14T22:54:52.023Z,2.10
2022-08-14T22:56:53.271Z,2.10
2022-08-14T22:59:00.441Z,1.98
2022-08-14T23:01:10.210Z,2.55
2022-08-14T23:03:17.515Z,2.75
2022-08-14T23:05:34.183Z,3.47
2022-08-14T23:08:56.726Z,2.22
2022-08-14T23:10:31.305Z,2.17
2022-08-14T23:12:29.873Z,3.13
2022-08-14T23:14:32.013Z,2.55
2022-08-14T23:16:35.352Z,2.33
2022-08-14T23:18:38.880Z,2.17
2022-08-14T23:20:44.241Z,2.58
2022-08-14T23:22:47.767Z,2.65
2022-08-14T23:24:52.756Z,2.40
2022-08-14T23:26:58.315Z,2.90
2022-08-14T23:28:59.827Z,2.63
2022-08-14T23:31:01.929Z,2.97
2022-08-14T23:33:04.152Z,2.25
2022-08-14T23:35:07.306Z,3.30
2022-08-14T23:37:08.913Z,2.28
2022-08-14T23:39:18.984Z,2.78
2022-08-14T23:41:21.257Z,2.10
2022-08-14T23:43:23.282Z,2.60
2022-08-14T23:45:35.355Z,3.28
2022-08-14T23:47:51.158Z,3.45
2022-08-14T23:50:00.893Z,2.53
2022-08-14T23:52:55.483Z,2.35
2022-08-14T23:54:49.320Z,2.35
2022-08-14T23:56:48.396Z,3.17
2022-08-14T23:59:01.871Z,2.42
